Time;durP1;ratioP1;P1;durP2;ratioP2;P2;SDS_P1;SDS_P2;PMS_P1;PMS_P2;Temp;Humidity;BMP_temperature;BMP_pressure;BME280_temperature;BME280_humidity;BME280_pressure;Samples;Min_cycle;Max_cycle;Signal;HPM_P1;HPM_P2
2023/12/14 00:01:41;;;;;;;7.93;5.97;;;8.90;99.90;;;9.13;99.26;99537.06;4871140;28;20760;-66
2023/12/14 00:04:04;;;;;;;9.38;6.65;;;8.90;99.90;;;9.09;99.57;99540.84;4872885;28;24455;-66
2023/12/14 00:06:27;;;;;;;7.53;5.72;;;8.80;99.90;;;9.04;99.63;99540.44;4876096;28;24485;-67
2023/12/14 00:08:49;;;;;;;9.55;6.53;;;8.80;99.90;;;8.99;99.79;99539.97;4860626;28;25103;-68
2023/12/14 00:11:11;;;;;;;7.88;5.97;;;8.80;99.90;;;8.94;99.54;99544.75;4873619;28;24868;-68
2023/12/14 00:13:34;;;;;;;9.48;6.70;;;8.70;99.90;;;8.91;100.00;99544.97;4875824;28;24446;-67
2023/12/14 00:15:56;;;;;;;11.00;6.93;;;8.70;99.90;;;8.90;100.00;99548.53;4873431;28;24455;-67
2023/12/14 00:18:18;;;;;;;10.35;6.43;;;8.70;99.90;;;8.88;99.94;99550.44;4867272;28;24450;-66
2023/12/14 00:20:40;;;;;;;9.27;6.20;;;8.60;99.90;;;8.82;100.00;99550.94;4869383;28;24505;-66
2023/12/14 00:23:02;;;;;;;10.63;6.93;;;8.60;99.90;;;8.77;99.80;99553.09;4873532;28;24446;-67
2023/12/14 00:25:24;;;;;;;9.13;6.60;;;8.50;99.90;;;8.73;99.81;99562.06;4866841;28;24826;-67
2023/12/14 00:27:45;;;;;;;10.27;6.13;;;8.50;99.90;;;8.71;100.00;99565.78;4871833;28;24988;-65
2023/12/14 00:30:08;;;;;;;8.88;6.45;;;8.50;99.90;;;8.69;99.72;99570.28;4874621;28;24515;-66
2023/12/14 00:32:30;;;;;;;9.50;6.67;;;8.40;99.90;;;8.63;99.77;99571.56;4873756;28;24423;-67
2023/12/14 00:34:54;;;;;;;8.10;6.38;;;8.40;99.90;;;8.62;99.54;99569.94;4870657;28;24451;-65
2023/12/14 00:37:16;;;;;;;10.48;6.70;;;8.40;99.90;;;8.62;99.13;99579.50;4865235;28;24445;-67
2023/12/14 00:39:38;;;;;;;10.38;6.60;;;8.40;99.90;;;8.60;99.82;99582.25;4866921;28;24493;-68
2023/12/14 00:42:00;;;;;;;8.55;6.80;;;8.30;99.90;;;8.60;99.68;99582.25;4873112;28;24992;-67
2023/12/14 00:44:22;;;;;;;13.13;6.60;;;8.30;99.90;;;8.62;99.97;99587.31;4866085;28;25050;-70
2023/12/14 00:46:43;;;;;;;9.32;7.10;;;8.40;99.90;;;8.60;99.78;99588.25;4855302;28;24482;-67
2023/12/14 00:49:05;;;;;;;10.10;6.75;;;8.30;99.90;;;8.63;100.00;99591.53;4865175;28;24543;-66
2023/12/14 00:51:27;;;;;;;9.98;6.72;;;8.30;99.90;;;8.62;100.00;99589.91;4872219;28;25077;-68
2023/12/14 00:53:49;;;;;;;13.67;7.77;;;8.30;99.90;;;8.63;100.00;99594.97;4863603;28;25053;-69
2023/12/14 00:56:11;;;;;;;8.43;6.28;;;8.40;99.90;;;8.65;99.91;99597.44;4871595;28;25065;-65
2023/12/14 00:58:33;;;;;;;9.98;6.95;;;8.30;99.90;;;8.65;100.00;99606.06;4869707;28;24523;-67
2023/12/14 01:00:55;;;;;;;10.20;7.10;;;8.40;99.90;;;8.65;100.00;99615.66;4873754;28;24427;-65
2023/12/14 01:03:17;;;;;;;11.88;7.45;;;8.40;99.90;;;8.63;100.00;99618.38;4870406;28;24439;-66
2023/12/14 01:05:40;;;;;;;11.43;8.10;;;8.40;99.90;;;8.63;99.77;99622.75;4881467;28;24881;-67
2023/12/14 01:08:02;;;;;;;11.50;7.22;;;8.40;99.90;;;8.65;99.33;99631.25;4873442;28;25242;-66
2023/12/14 01:10:23;;;;;;;10.65;7.55;;;8.30;99.90;;;8.64;99.64;99633.03;4872466;28;24993;-66
2023/12/14 01:12:45;;;;;;;10.82;7.32;;;8.40;99.90;;;8.66;100.00;99644.16;4871574;28;24816;-67
2023/12/14 01:15:08;;;;;;;12.40;8.10;;;8.40;99.90;;;8.67;100.00;99648.38;4870889;28;24449;-67
2023/12/14 01:17:30;;;;;;;11.35;7.70;;;8.40;99.90;;;8.68;100.00;99652.66;4867250;28;24542;-66
2023/12/14 01:19:52;;;;;;;15.77;8.77;;;8.40;99.90;;;8.69;99.93;99656.88;4862245;28;24440;-69
2023/12/14 01:22:14;;;;;;;12.25;7.82;;;8.40;99.90;;;8.69;100.00;99653.47;4874643;28;24434;-66
2023/12/14 01:24:37;;;;;;;11.30;7.72;;;8.40;99.90;;;8.66;100.00;99670.16;4857490;28;24504;-68
2023/12/14 01:26:59;;;;;;;10.77;7.65;;;8.40;99.90;;;8.66;100.00;99680.56;4874076;28;25153;-67
2023/12/14 01:29:21;;;;;;;10.37;7.17;;;8.40;99.90;;;8.65;100.00;99678.88;4872313;28;24504;-65
2023/12/14 01:31:43;;;;;;;13.48;7.50;;;8.40;99.90;;;8.66;100.00;99690.13;4873373;28;24438;-65
2023/12/14 01:34:05;;;;;;;11.40;7.30;;;8.40;99.90;;;8.65;99.59;99688.44;4865965;28;24822;-67
2023/12/14 01:36:27;;;;;;;10.88;7.70;;;8.40;99.90;;;8.67;99.91;99689.19;4868407;28;24431;-64
2023/12/14 01:38:50;;;;;;;11.07;7.38;;;8.30;99.90;;;8.66;100.00;99693.56;4873279;28;24485;-65
2023/12/14 01:41:12;;;;;;;12.52;7.30;;;8.40;99.90;;;8.68;100.00;99699.47;4874191;28;24430;-65
2023/12/14 01:43:34;;;;;;;10.75;7.20;;;8.40;99.90;;;8.70;100.00;99701.94;4861805;28;24440;-67
2023/12/14 01:45:56;;;;;;;9.10;6.80;;;8.40;99.90;;;8.69;99.69;99701.09;4870853;28;24482;-65
2023/12/14 01:48:18;;;;;;;11.30;7.40;;;8.40;99.90;;;8.70;99.84;99707.13;4872141;28;24532;-67
2023/12/14 01:50:40;;;;;;;11.18;7.28;;;8.40;99.90;;;8.70;99.54;99702.75;4872015;28;24454;-66
2023/12/14 01:53:02;;;;;;;10.70;7.20;;;8.40;99.90;;;8.73;99.61;99710.31;4873390;28;24522;-67
2023/12/14 01:55:25;;;;;;;10.65;6.97;;;8.50;99.90;;;8.74;99.48;99713.75;4872324;28;24509;-67
2023/12/14 01:57:47;;;;;;;11.55;7.00;;;8.50;99.90;;;8.72;99.35;99715.63;4854782;28;24916;-65
2023/12/14 02:00:39;;;;;;;8.90;6.50;;;8.50;99.90;;;8.73;99.04;99720.72;4872879;28;24471;-67
2023/12/14 02:03:01;;;;;;;10.70;7.10;;;8.50;99.90;;;8.72;99.19;99720.84;4872478;28;24489;-66
2023/12/14 02:05:23;;;;;;;9.20;6.63;;;8.40;99.90;;;8.71;99.38;99725.22;4864937;28;24454;-68
2023/12/14 02:07:45;;;;;;;9.90;6.82;;;8.50;99.90;;;8.74;99.44;99727.56;4872653;28;24996;-68
2023/12/14 02:10:08;;;;;;;10.80;7.22;;;8.50;99.90;;;8.76;99.45;99727.44;4870734;28;24454;-67
2023/12/14 02:12:30;;;;;;;10.73;7.20;;;8.50;99.90;;;8.74;99.16;99732.78;4873219;28;24459;-67
2023/12/14 02:14:52;;;;;;;9.95;7.22;;;8.50;99.90;;;8.75;99.65;99736.22;4871185;28;25007;-69
2023/12/14 02:17:14;;;;;;;10.98;6.85;;;8.50;99.90;;;8.76;99.12;99737.84;4867703;28;24522;-66
2023/12/14 02:19:36;;;;;;;10.05;6.78;;;8.50;99.90;;;8.76;99.13;99743.88;4870169;28;24439;-67
2023/12/14 02:21:58;;;;;;;11.13;7.13;;;8.50;99.90;;;8.77;99.17;99748.16;4860314;28;24444;-67
2023/12/14 02:24:19;;;;;;;10.80;7.00;;;8.50;99.90;;;8.81;99.35;99743.53;4872240;28;24475;-68
2023/12/14 02:26:41;;;;;;;11.60;7.20;;;8.50;99.90;;;8.82;99.39;99751.19;4872678;28;24431;-68
2023/12/14 02:29:23;;;;;;;11.43;6.47;;;8.50;99.90;;;8.82;99.21;99759.00;4869634;28;24513;-67
2023/12/14 02:31:46;;;;;;;9.85;6.25;;;8.50;99.90;;;8.84;99.45;99761.50;4872261;28;24427;-65
2023/12/14 02:34:08;;;;;;;9.25;7.10;;;8.50;99.90;;;8.86;99.52;99760.41;4868908;28;24451;-65
2023/12/14 02:36:30;;;;;;;8.40;6.25;;;8.50;99.90;;;8.87;99.13;99764.69;4874032;28;24508;-67
2023/12/14 02:38:52;;;;;;;9.80;6.70;;;8.60;99.90;;;8.89;99.15;99762.78;4870769;28;24431;-65
2023/12/14 02:41:14;;;;;;;8.45;6.00;;;8.60;99.90;;;8.93;99.52;99782.41;4872470;28;24435;-66
2023/12/14 02:43:37;;;;;;;8.70;6.25;;;8.60;99.90;;;8.94;99.31;99778.88;4872418;28;24447;-67
2023/12/14 02:46:02;;;;;;;8.52;6.20;;;8.60;99.90;;;8.94;99.53;99791.88;4876164;28;24481;-68
2023/12/14 02:48:24;;;;;;;9.98;6.30;;;8.70;99.90;;;8.97;99.62;99790.78;4862061;28;24454;-68
2023/12/14 02:50:46;;;;;;;9.50;6.40;;;8.70;99.90;;;8.88;99.42;99794.13;4868101;28;24435;-66
2023/12/14 02:53:08;;;;;;;9.77;5.93;;;8.60;99.90;;;8.83;100.00;99794.50;4871893;28;25003;-66
2023/12/14 02:55:30;;;;;;;10.38;6.00;;;8.60;99.90;;;8.85;100.00;99795.19;4877124;28;24656;-67
2023/12/14 02:57:52;;;;;;;8.55;5.90;;;8.60;99.90;;;8.85;100.00;99795.19;4876700;28;24439;-67
2023/12/14 03:00:14;;;;;;;8.52;5.75;;;8.60;99.90;;;8.87;100.00;99800.28;4864009;28;24477;-66
2023/12/14 03:02:36;;;;;;;8.35;5.90;;;8.60;99.90;;;8.89;99.99;99806.19;4874905;28;24476;-67
2023/12/14 03:04:58;;;;;;;10.05;6.15;;;8.60;99.90;;;8.87;99.87;99808.06;4872474;28;24468;-67
2023/12/14 03:07:21;;;;;;;10.07;6.30;;;8.60;99.90;;;8.87;99.86;99814.13;4876748;28;24972;-68
2023/12/14 03:09:44;;;;;;;8.17;5.90;;;8.60;99.90;;;8.90;100.00;99816.47;4879411;28;24509;-68
2023/12/14 03:12:06;;;;;;;11.68;6.97;;;8.60;99.90;;;8.88;100.00;99813.16;4874483;28;24530;-65
2023/12/14 03:14:33;;;;;;;12.18;6.40;;;8.60;99.90;;;8.88;99.98;99820.94;4865154;28;24556;-67
2023/12/14 03:16:55;;;;;;;12.00;6.57;;;8.60;99.90;;;8.86;99.84;99822.84;4870866;28;24697;-66
2023/12/14 03:19:17;;;;;;;11.73;6.30;;;8.60;99.90;;;8.90;99.79;99832.06;4864193;28;24458;-67
2023/12/14 03:21:39;;;;;;;10.70;6.00;;;8.60;99.90;;;8.94;100.00;99836.13;4870858;28;24543;-67
2023/12/14 03:24:01;;;;;;;11.10;6.28;;;8.60;99.90;;;8.97;99.93;99832.41;4875246;28;24457;-67
2023/12/14 03:26:23;;;;;;;9.68;6.40;;;8.70;99.90;;;9.01;99.76;99839.03;4867941;28;24445;-68
2023/12/14 03:28:45;;;;;;;8.83;6.50;;;8.70;99.90;;;9.01;99.68;99846.84;4872423;28;24572;-66
2023/12/14 03:31:07;;;;;;;10.55;6.30;;;8.70;99.90;;;9.02;98.96;99854.56;4874945;28;24481;-67
2023/12/14 03:33:29;;;;;;;11.02;6.45;;;8.70;99.90;;;9.03;98.64;99856.19;4849475;28;24992;-67
2023/12/14 03:35:51;;;;;;;12.05;6.35;;;8.70;99.90;;;8.99;99.00;99862.59;4868692;28;24816;-67
2023/12/14 03:38:14;;;;;;;10.38;6.55;;;8.70;99.90;;;8.97;99.21;99861.88;4879779;28;24435;-68
2023/12/14 03:40:36;;;;;;;10.95;6.43;;;8.70;99.90;;;8.97;98.93;99861.03;4875060;28;24434;-67
2023/12/14 03:42:58;;;;;;;9.93;6.00;;;8.70;99.90;;;8.98;98.76;99868.75;4873906;28;24856;-66
2023/12/14 03:45:21;;;;;;;9.87;6.10;;;8.70;99.90;;;8.95;98.63;99873.34;4874101;28;24500;-67
2023/12/14 03:47:43;;;;;;;9.27;6.28;;;8.70;99.90;;;8.94;98.63;99869.94;4865192;28;24897;-67
2023/12/14 03:50:06;;;;;;;10.25;6.60;;;8.70;99.90;;;8.91;98.64;99870.16;4870567;28;25054;-69
2023/12/14 03:52:31;;;;;;;10.52;6.30;;;8.60;99.90;;;8.91;98.62;99877.97;4875110;28;24438;-66
2023/12/14 03:54:53;;;;;;;9.85;6.70;;;8.60;99.90;;;8.88;98.81;99878.19;4875221;28;24450;-65
2023/12/14 03:57:15;;;;;;;10.57;6.70;;;8.60;99.90;;;8.83;98.62;99880.31;4873361;28;24858;-64
2023/12/14 03:59:40;;;;;;;10.10;6.20;;;8.60;99.90;;;8.84;99.57;99879.38;4874406;28;24450;-67
2023/12/14 04:02:02;;;;;;;10.82;6.45;;;8.60;99.90;;;8.86;99.41;99887.06;4875882;28;24416;-67
2023/12/14 04:04:24;;;;;;;11.73;6.50;;;8.60;99.90;;;8.87;99.49;99891.31;4876362;28;25059;-67
2023/12/14 04:06:46;;;;;;;11.05;6.55;;;8.60;99.90;;;8.86;99.27;99887.88;4879330;28;24427;-67
2023/12/14 04:09:08;;;;;;;10.07;6.10;;;8.60;99.90;;;8.90;99.02;99891.09;4872860;28;24887;-67
2023/12/14 04:11:30;;;;;;;10.43;6.03;;;8.60;99.90;;;8.92;99.49;99889.19;4875167;28;24481;-67
2023/12/14 04:13:53;;;;;;;7.82;5.63;;;8.60;99.90;;;8.96;99.34;99896.66;4873106;28;24501;-68
2023/12/14 04:16:15;;;;;;;13.63;6.55;;;8.60;99.90;;;8.92;99.31;99902.22;4873101;28;24542;-67
2023/12/14 04:18:37;;;;;;;13.57;7.13;;;8.60;99.90;;;8.91;98.79;99901.38;4875796;28;24514;-67
2023/12/14 04:20:59;;;;;;;10.48;6.50;;;8.60;99.90;;;8.91;99.11;99905.75;4875346;28;24523;-66
2023/12/14 04:23:21;;;;;;;11.20;6.90;;;8.60;99.90;;;8.94;98.76;99910.72;4873903;28;24526;-67
2023/12/14 04:25:43;;;;;;;9.27;5.73;;;8.60;99.90;;;8.97;99.21;99915.69;4876325;28;25036;-67
2023/12/14 04:28:05;;;;;;;10.15;6.07;;;8.60;99.90;;;9.00;99.35;99918.06;4875505;28;24439;-67
2023/12/14 04:30:27;;;;;;;8.38;5.55;;;8.70;99.90;;;9.01;99.56;99920.53;4874892;28;24526;-66
2023/12/14 04:32:49;;;;;;;9.82;6.53;;;8.70;99.90;;;9.03;99.07;99929.03;4873599;28;24451;-67
2023/12/14 04:35:11;;;;;;;11.80;6.83;;;8.70;99.90;;;9.05;98.77;99921.16;4874678;28;24450;-67
2023/12/14 04:37:34;;;;;;;9.40;5.85;;;8.70;99.90;;;9.06;99.04;99934.03;4872375;28;24461;-67
2023/12/14 04:39:55;;;;;;;10.68;5.93;;;8.70;99.90;;;9.06;99.38;99931.44;4873599;28;24424;-65
2023/12/14 04:42:17;;;;;;;11.80;6.30;;;8.70;99.90;;;9.08;98.66;99929.53;4872950;28;24534;-67
2023/12/14 04:44:39;;;;;;;9.48;6.03;;;8.80;99.90;;;9.06;98.65;99941.00;4873448;28;24904;-68
2023/12/14 04:47:01;;;;;;;10.73;6.20;;;8.70;99.90;;;9.07;98.84;99945.28;4875644;28;24585;-67
2023/12/14 04:49:23;;;;;;;10.07;6.57;;;8.80;99.90;;;9.04;98.86;99951.53;4870160;28;24517;-67
2023/12/14 04:51:45;;;;;;;11.77;6.50;;;8.70;99.90;;;9.04;99.23;99956.75;4870438;28;24435;-66
2023/12/14 04:54:07;;;;;;;9.95;6.10;;;8.70;99.90;;;9.03;99.06;99960.28;4874702;28;24514;-65
2023/12/14 04:56:29;;;;;;;9.70;6.47;;;8.70;99.90;;;9.06;99.66;99967.03;4869782;28;24551;-65
2023/12/14 04:58:51;;;;;;;9.73;6.40;;;8.70;99.90;;;9.08;99.92;99978.97;4873496;28;24430;-66
2023/12/14 05:01:13;;;;;;;14.50;6.75;;;8.70;99.90;;;9.08;99.68;99975.53;4873969;28;24523;-66
2023/12/14 05:03:35;;;;;;;9.82;6.35;;;8.80;99.90;;;9.08;100.00;99980.75;4854175;28;24492;-67
2023/12/14 05:05:57;;;;;;;9.45;6.40;;;8.70;99.90;;;9.08;99.46;99980.75;4874830;28;24486;-67
2023/12/14 05:08:19;;;;;;;10.82;7.00;;;8.70;99.90;;;9.07;99.83;99990.31;4872014;28;24582;-68
2023/12/14 05:10:41;;;;;;;10.97;6.77;;;8.80;99.90;;;9.06;99.53;99988.69;4877501;28;24544;-67
2023/12/14 05:13:03;;;;;;;12.93;7.13;;;8.80;99.90;;;9.07;99.78;99989.50;4873940;28;24514;-67
2023/12/14 05:15:25;;;;;;;12.13;7.50;;;8.70;99.90;;;9.05;99.79;100000.00;4870087;28;25083;-66
2023/12/14 05:17:47;;;;;;;11.70;6.68;;;8.70;99.90;;;9.05;100.00;100007.81;4866815;28;24440;-65
2023/12/14 05:20:10;;;;;;;13.25;7.18;;;8.70;99.90;;;9.01;100.00;100010.75;4865711;28;24459;-67
2023/12/14 05:22:32;;;;;;;12.20;7.30;;;8.70;99.90;;;9.03;100.00;100022.72;4877050;28;24450;-65
2023/12/14 05:24:54;;;;;;;11.52;6.72;;;8.70;99.90;;;8.99;99.96;100021.28;4873346;28;24853;-66
2023/12/14 05:27:16;;;;;;;11.32;6.80;;;8.70;99.90;;;9.01;99.81;100024.59;4859930;28;24479;-65
2023/12/14 05:29:38;;;;;;;11.77;6.80;;;8.70;99.90;;;9.01;99.62;100031.59;4874026;28;24844;-68
2023/12/14 05:32:00;;;;;;;9.85;6.95;;;8.70;99.90;;;9.01;99.91;100027.22;4873148;28;24431;-68
2023/12/14 05:34:22;;;;;;;11.05;6.90;;;8.70;99.90;;;8.99;100.00;100034.31;4876756;28;25486;-67
2023/12/14 05:36:44;;;;;;;14.00;7.80;;;8.60;99.90;;;9.00;100.00;100043.78;4862994;28;24621;-67
2023/12/14 05:39:05;;;;;;;12.02;7.63;;;8.70;99.90;;;9.00;100.00;100040.34;4873610;28;25140;-66
2023/12/14 05:41:27;;;;;;;12.25;7.30;;;8.70;99.90;;;9.01;100.00;100048.03;4875846;28;24843;-66
2023/12/14 05:43:49;;;;;;;9.65;7.10;;;8.70;99.90;;;9.01;100.00;100045.44;4864846;28;24512;-67
2023/12/14 05:46:21;;;;;;;12.27;7.30;;;8.70;99.90;;;9.02;100.00;100049.72;4867068;28;24488;-67
2023/12/14 05:48:43;;;;;;;13.57;7.30;;;8.70;99.90;;;9.01;100.00;100062.81;4870149;28;24445;-66
2023/12/14 05:51:05;;;;;;;10.95;6.97;;;8.70;99.90;;;9.00;100.00;100067.22;4872768;28;24449;-66
2023/12/14 05:53:27;;;;;;;11.77;7.22;;;8.70;99.90;;;9.00;100.00;100067.22;4873093;28;24545;-65
2023/12/14 05:55:49;;;;;;;11.80;7.40;;;8.70;99.90;;;8.99;100.00;100075.94;4871667;28;24483;-66
2023/12/14 05:58:11;;;;;;;12.30;7.40;;;8.70;99.90;;;8.98;100.00;100078.66;4873558;28;24492;-67
2023/12/14 06:00:35;;;;;;;10.63;6.60;;;8.70;99.90;;;8.97;100.00;100085.63;4871046;28;24535;-67
2023/12/14 06:02:57;;;;;;;10.77;6.75;;;8.60;99.90;;;8.96;100.00;100086.59;4869385;28;24447;-67
2023/12/14 06:05:20;;;;;;;11.80;7.10;;;8.60;99.90;;;8.96;100.00;100088.34;4866241;28;20771;-67
2023/12/14 06:07:42;;;;;;;8.10;5.88;;;8.60;99.90;;;8.96;100.00;100090.97;4878044;28;24489;-66
2023/12/14 06:10:05;;;;;;;10.40;6.85;;;8.60;99.90;;;8.98;100.00;100096.88;4872480;28;24440;-67
2023/12/14 06:12:28;;;;;;;12.10;7.10;;;8.60;99.90;;;9.01;100.00;100107.88;4865406;28;25011;-67
2023/12/14 06:14:50;;;;;;;10.90;6.70;;;8.70;99.90;;;9.02;100.00;100124.31;4869343;28;24427;-67
2023/12/14 06:17:11;;;;;;;10.38;6.45;;;8.70;99.90;;;9.01;100.00;100114.84;4878877;28;24447;-66
2023/12/14 06:19:33;;;;;;;10.15;6.72;;;8.70;99.90;;;9.01;100.00;100120.06;4874356;28;24549;-66
2023/12/14 06:21:56;;;;;;;11.63;6.78;;;8.70;99.90;;;9.00;100.00;100124.44;4861204;28;24447;-65
2023/12/14 06:24:18;;;;;;;11.20;7.13;;;8.70;99.90;;;9.01;100.00;100122.66;4872482;28;24454;-67
2023/12/14 06:26:44;;;;;;;10.68;6.72;;;8.70;99.90;;;9.01;100.00;100120.06;4866260;28;24913;-66
2023/12/14 06:29:06;;;;;;;8.77;6.20;;;8.70;99.90;;;9.01;100.00;100130.47;4854825;28;24431;-67
2023/12/14 06:31:28;;;;;;;10.45;6.53;;;8.70;99.90;;;9.00;100.00;100127.06;4875834;28;24797;-67
2023/12/14 06:33:49;;;;;;;11.00;6.40;;;8.70;99.90;;;9.02;100.00;100142.53;4875617;28;24549;-66
2023/12/14 06:36:12;;;;;;;10.95;6.28;;;8.70;99.90;;;9.01;100.00;100146.06;4877633;28;24447;-66
2023/12/14 06:38:34;;;;;;;9.52;6.03;;;8.70;99.90;;;9.00;99.98;100150.47;4872258;28;25076;-66
2023/12/14 06:40:55;;;;;;;9.90;6.65;;;8.70;99.90;;;8.99;100.00;100154.00;4879124;28;24419;-67
2023/12/14 06:43:17;;;;;;;10.55;6.57;;;8.70;99.90;;;8.98;100.00;100160.16;4866902;28;24451;-68
2023/12/14 06:45:40;;;;;;;10.18;6.10;;;8.70;99.90;;;8.95;99.99;100164.75;4870900;28;24431;-67
2023/12/14 06:48:03;;;;;;;9.25;5.70;;;8.70;99.90;;;8.93;99.90;100166.63;4876509;28;25040;-67
2023/12/14 06:50:25;;;;;;;9.52;6.40;;;8.70;99.90;;;8.91;100.00;100169.34;4867654;28;24493;-66
2023/12/14 06:52:47;;;;;;;10.50;6.90;;;8.60;99.90;;;8.90;99.96;100172.88;4876519;28;24434;-66
2023/12/14 06:55:09;;;;;;;10.95;6.90;;;8.60;99.90;;;8.90;100.00;100183.28;4876309;28;24523;-68
2023/12/14 06:57:31;;;;;;;10.80;6.80;;;8.60;99.90;;;8.92;100.00;100177.97;4877048;28;24982;-66
2023/12/14 06:59:53;;;;;;;11.20;7.22;;;8.60;99.90;;;8.90;100.00;100183.28;4874185;28;24538;-68
2023/12/14 07:02:15;;;;;;;12.57;6.97;;;8.60;99.90;;;8.91;100.00;100192.75;4883138;28;24974;-66
2023/12/14 07:04:37;;;;;;;10.57;6.68;;;8.60;99.90;;;8.92;100.00;100191.81;4874552;28;24450;-65
2023/12/14 07:06:59;;;;;;;10.35;6.65;;;8.60;99.90;;;8.95;100.00;100196.78;4877337;28;24439;-67
2023/12/14 07:09:21;;;;;;;10.70;7.18;;;8.60;99.90;;;8.95;100.00;100196.78;4876603;28;25192;-67
2023/12/14 07:11:43;;;;;;;12.13;7.30;;;8.60;99.90;;;8.99;100.00;100202.59;4880233;28;24805;-67
2023/12/14 07:14:05;;;;;;;10.77;7.10;;;8.60;99.90;;;9.00;100.00;100210.31;4873009;28;24551;-67
2023/12/14 07:16:27;;;;;;;11.57;6.82;;;8.60;99.90;;;9.01;100.00;100216.31;4874563;28;24447;-66
2023/12/14 07:18:49;;;;;;;11.45;7.20;;;8.70;99.90;;;9.00;100.00;100220.72;4871656;28;25033;-66
2023/12/14 07:21:13;;;;;;;14.80;7.60;;;8.70;99.90;;;9.01;100.00;100227.56;4874470;28;24423;-66
2023/12/14 07:23:37;;;;;;;13.75;7.25;;;8.70;99.90;;;9.02;100.00;100231.84;4846747;28;25020;-66
2023/12/14 07:26:01;;;;;;;13.13;7.78;;;8.70;99.90;;;9.06;100.00;100235.06;4856793;28;24988;-65
2023/12/14 07:28:27;;;;;;;15.25;7.60;;;8.70;99.90;;;9.07;99.61;100245.34;4840419;28;20752;-66
2023/12/14 07:30:49;;;;;;;11.98;7.50;;;8.70;99.90;;;9.08;99.72;100240.97;4866755;28;24477;-65
2023/12/14 07:33:16;;;;;;;12.63;7.30;;;8.70;99.90;;;9.09;99.80;100246.06;4875175;28;24442;-66
2023/12/14 07:35:38;;;;;;;13.35;7.70;;;8.80;99.90;;;9.11;99.55;100246.81;4877605;28;24435;-66
2023/12/14 07:38:00;;;;;;;14.60;7.80;;;8.80;99.90;;;9.13;99.52;100252.75;4875856;28;25156;-65
2023/12/14 07:40:22;;;;;;;11.82;7.35;;;8.80;99.90;;;9.18;100.00;100260.19;4875698;28;24423;-65
2023/12/14 07:42:43;;;;;;;14.02;7.63;;;8.80;99.90;;;9.20;99.63;100259.16;4873281;28;24523;-67
2023/12/14 07:45:08;;;;;;;13.80;8.02;;;8.80;99.90;;;9.21;99.65;100276.44;4872981;28;24451;-66
2023/12/14 07:47:30;;;;;;;12.55;8.02;;;8.90;99.90;;;9.24;99.34;100284.00;4874020;28;24829;-66
2023/12/14 07:49:52;;;;;;;13.50;7.57;;;8.90;99.90;;;9.24;99.03;100281.41;4876055;28;24445;-66
2023/12/14 07:52:16;;;;;;;11.40;7.50;;;8.90;99.90;;;9.20;98.96;100287.78;4875929;28;25185;-66
2023/12/14 07:54:38;;;;;;;12.38;7.53;;;8.90;99.90;;;9.14;98.90;100290.81;4878913;28;24438;-65
2023/12/14 07:57:00;;;;;;;10.93;6.95;;;8.90;99.90;;;9.11;98.60;100290.22;4875524;28;25021;-66
2023/12/14 07:59:22;;;;;;;13.57;7.10;;;8.80;99.90;;;9.08;98.75;100298.22;4876139;28;24534;-63
2023/12/14 08:01:44;;;;;;;10.13;6.93;;;8.80;99.90;;;9.10;99.25;100306.75;4874465;28;24493;-67
2023/12/14 08:04:06;;;;;;;14.05;7.68;;;8.80;99.90;;;9.12;99.07;100308.31;4879198;28;24470;-67
2023/12/14 08:06:28;;;;;;;12.40;7.30;;;8.80;99.90;;;9.15;99.56;100315.94;4857776;28;24463;-67
2023/12/14 08:08:50;;;;;;;11.65;7.28;;;8.80;99.90;;;9.19;99.39;100314.78;4872509;28;24447;-67
2023/12/14 08:11:12;;;;;;;13.27;7.65;;;8.80;99.90;;;9.22;99.30;100313.72;4873712;28;24433;-65
2023/12/14 08:13:34;;;;;;;12.48;7.68;;;8.90;99.90;;;9.26;99.42;100326.38;4879505;28;24434;-69
2023/12/14 08:15:57;;;;;;;12.10;6.90;;;8.90;99.90;;;9.32;99.35;100319.94;4873041;28;25117;-66
2023/12/14 08:18:20;;;;;;;12.25;6.80;;;8.90;99.90;;;9.34;99.54;100331.91;4874944;28;24564;-67
2023/12/14 08:20:43;;;;;;;10.32;7.00;;;9.00;99.90;;;9.38;99.42;100335.09;4873997;28;24523;-66
2023/12/14 08:23:05;;;;;;;11.95;7.43;;;9.00;99.90;;;9.44;98.54;100344.25;4873816;28;24530;-67
2023/12/14 08:25:27;;;;;;;8.98;6.20;;;9.10;99.90;;;9.44;98.38;100346.84;4880884;28;24430;-66
2023/12/14 08:27:49;;;;;;;12.33;7.10;;;9.10;99.90;;;9.46;98.40;100363.19;4872927;28;24493;-66
2023/12/14 08:30:12;;;;;;;11.57;6.70;;;9.10;99.90;;;9.41;98.72;100368.75;4873018;28;24874;-70
2023/12/14 08:32:34;;;;;;;10.95;6.50;;;9.10;99.90;;;9.40;98.69;100369.69;4863659;28;25010;-68
2023/12/14 08:34:57;;;;;;;12.73;6.93;;;9.10;99.90;;;9.42;99.05;100374.75;4876544;28;24970;-66
2023/12/14 08:37:19;;;;;;;11.47;6.97;;;9.10;99.90;;;9.43;98.83;100382.50;4872691;28;24857;-67
2023/12/14 08:39:42;;;;;;;11.50;6.72;;;9.10;99.90;;;9.43;98.88;100387.69;4879465;28;24493;-65
2023/12/14 08:42:04;;;;;;;10.20;6.50;;;9.10;99.90;;;9.42;98.83;100391.22;4879259;28;24475;-66
2023/12/14 08:44:26;;;;;;;11.38;6.80;;;9.10;99.90;;;9.45;98.67;100388.41;4875131;28;24450;-66
2023/12/14 08:46:49;;;;;;;11.10;6.80;;;9.10;99.90;;;9.47;98.08;100396.13;4872126;28;24447;-66
2023/12/14 08:49:12;;;;;;;10.50;6.70;;;9.10;99.90;;;9.42;98.56;100403.41;4874858;28;24543;-64
2023/12/14 08:51:34;;;;;;;12.13;6.63;;;9.10;99.90;;;9.42;98.73;100408.63;4874019;28;24439;-64
2023/12/14 08:53:56;;;;;;;12.98;7.22;;;9.00;99.90;;;9.45;98.55;100413.63;4878610;28;24531;-65
2023/12/14 08:56:18;;;;;;;12.73;7.68;;;9.10;99.90;;;9.49;98.25;100415.91;4872882;28;24443;-64
2023/12/14 08:58:40;;;;;;;12.40;7.18;;;9.10;99.90;;;9.52;98.17;100420.88;4874207;28;24438;-65
2023/12/14 09:01:02;;;;;;;11.13;7.60;;;9.10;99.90;;;9.54;98.41;100426.81;4871449;28;24446;-65
2023/12/14 09:03:26;;;;;;;14.27;8.03;;;9.10;99.90;;;9.58;98.80;100441.31;4860029;28;24518;-65
2023/12/14 09:05:48;;;;;;;12.98;7.95;;;9.20;99.90;;;9.61;98.67;100435.03;4863362;28;24510;-66
2023/12/14 09:08:10;;;;;;;10.98;7.10;;;9.20;99.90;;;9.62;98.63;100444.53;4861292;28;24454;-66
2023/12/14 09:10:33;;;;;;;13.47;7.80;;;9.20;99.90;;;9.67;98.83;100450.25;4848070;28;24436;-64
2023/12/14 09:12:55;;;;;;;12.95;7.72;;;9.30;99.90;;;9.72;98.18;100448.97;4872183;28;24464;-66
2023/12/14 09:15:17;;;;;;;13.13;7.85;;;9.30;99.90;;;9.77;98.06;100449.47;4869886;28;24459;-66
2023/12/14 09:17:39;;;;;;;11.05;7.25;;;9.40;99.90;;;9.83;98.16;100456.03;4872498;28;24513;-65
2023/12/14 09:20:05;;;;;;;14.55;7.47;;;9.40;99.90;;;9.86;98.32;100456.63;4871999;28;24794;-66
2023/12/14 09:22:27;;;;;;;10.57;6.90;;;9.50;99.90;;;9.96;97.30;100467.22;4873177;28;24459;-65
2023/12/14 09:24:49;;;;;;;13.45;7.38;;;9.50;99.90;;;10.01;96.94;100471.16;4854360;28;25037;-65
2023/12/14 09:27:11;;;;;;;11.80;7.43;;;9.60;99.90;;;10.07;96.80;100470.72;4874420;28;24445;-64
2023/12/14 09:29:33;;;;;;;11.75;7.20;;;9.60;99.90;;;10.10;95.99;100480.97;4863984;28;24450;-64
2023/12/14 09:31:55;;;;;;;14.40;8.60;;;9.70;99.90;;;10.18;95.97;100485.59;4882042;28;24454;-65
2023/12/14 09:34:17;;;;;;;12.55;8.50;;;9.70;99.90;;;10.22;95.50;100494.91;4877054;28;24562;-65
2023/12/14 09:36:39;;;;;;;13.48;8.40;;;9.80;99.90;;;10.27;95.60;100500.59;4872884;28;24481;-65
2023/12/14 09:39:02;;;;;;;12.82;7.07;;;9.90;99.90;;;10.30;94.44;100503.00;4871761;28;24535;-65
2023/12/14 09:41:24;;;;;;;10.20;6.47;;;9.90;99.90;;;10.34;95.04;100506.19;4871921;28;24424;-66
2023/12/14 09:43:46;;;;;;;10.50;7.20;;;9.90;99.90;;;10.35;93.90;100521.72;4866968;28;24506;-67
2023/12/14 09:46:09;;;;;;;9.07;6.40;;;9.90;99.90;;;10.35;94.57;100521.72;4846507;28;25012;-65
2023/12/14 09:48:32;;;;;;;10.18;6.65;;;10.00;99.90;;;10.37;94.39;100527.66;4849566;28;24454;-66
2023/12/14 09:50:54;;;;;;;11.55;6.40;;;10.00;99.90;;;10.37;94.08;100535.47;4852704;28;24446;-67
2023/12/14 09:53:16;;;;;;;15.32;6.05;;;10.00;99.90;;;10.36;94.47;100533.84;4872472;28;24523;-65
2023/12/14 09:55:38;;;;;;;11.13;6.20;;;10.00;99.90;;;10.36;93.95;100533.84;4878170;28;24496;-66
2023/12/14 09:58:02;;;;;;;11.00;5.70;;;9.90;99.90;;;10.40;94.07;100540.50;4875057;28;24446;-67
2023/12/14 10:00:40;;;;;;;8.57;5.15;;;9.90;99.90;;;10.42;93.10;100538.59;4874526;28;24493;-66
2023/12/14 10:03:28;;;;;;;10.15;5.65;;;10.00;99.90;;;10.47;93.88;100544.34;4857092;28;25238;-66